Time;durP1;ratioP1;P1;durP2;ratioP2;P2;SDS_P1;SDS_P2;PMS_P1;PMS_P2;Temp;Humidity;BMP_temperature;BMP_pressure;BME280_temperature;BME280_humidity;BME280_pressure;Samples;Min_cycle;Max_cycle;Signal;HPM_P1;HPM_P2
2021/08/25 18:09:14;;;;;;;12.37;8.47;;;487.20;2380.80;;;;;;6191647;22;1648535;-72
2021/08/25 18:11:40;;;;;;;14.00;9.48;;;487.30;2380.80;;;;;;6269499;22;20229;-71
2021/08/25 18:14:06;;;;;;;11.45;7.78;;;487.30;2380.80;;;;;;6275130;22;20008;-72
2021/08/25 18:16:31;;;;;;;11.25;7.20;;;487.20;2380.80;;;;;;6247754;22;20003;-72
2021/08/25 18:18:57;;;;;;;10.27;6.13;;;487.10;2380.80;;;;;;6247956;22;20425;-72
2021/08/25 18:21:30;;;;;;;8.85;6.07;;;487.00;2380.80;;;;;;6274098;22;20658;-70
2021/08/25 18:23:59;;;;;;;11.15;6.10;;;487.00;2380.80;;;;;;6248442;22;20010;-73
2021/08/25 18:26:26;;;;;;;8.20;4.60;;;487.00;2380.80;;;;;;6273737;22;20276;-71
2021/08/25 18:28:52;;;;;;;6.75;5.00;;;486.90;2380.80;;;;;;6276037;22;20422;-72
2021/08/25 18:31:18;;;;;;;7.93;5.53;;;486.90;2380.80;;;;;;6274279;22;20004;-72
2021/08/25 18:33:44;;;;;;;6.43;4.82;;;486.90;2380.80;;;;;;6276082;22;20057;-74
2021/08/25 18:36:10;;;;;;;7.00;4.53;;;486.80;2380.80;;;;;;6247154;22;20417;-72
2021/08/25 18:38:36;;;;;;;5.88;4.50;;;486.70;2380.80;;;;;;6274733;22;20006;-72
2021/08/25 18:41:03;;;;;;;6.32;4.47;;;486.70;2380.80;;;;;;6275974;22;20000;-72
2021/08/25 18:43:29;;;;;;;5.72;4.28;;;486.60;2380.80;;;;;;6274304;22;20033;-73
2021/08/25 18:45:54;;;;;;;6.00;4.35;;;486.70;2380.80;;;;;;6275846;22;20066;-73
2021/08/25 18:48:20;;;;;;;5.95;3.90;;;486.70;2380.80;;;;;;6273838;22;20045;-73
2021/08/25 18:50:46;;;;;;;6.78;4.60;;;486.60;2380.80;;;;;;6275710;22;19996;-73
2021/08/25 18:53:13;;;;;;;7.00;4.50;;;486.60;2380.80;;;;;;6247912;22;20006;-73
2021/08/25 18:55:39;;;;;;;8.27;5.75;;;486.60;2380.80;;;;;;6222105;22;20019;-72
2021/08/25 18:58:05;;;;;;;8.75;5.70;;;486.50;2380.80;;;;;;6273342;22;20014;-72
2021/08/25 19:00:31;;;;;;;8.05;5.47;;;486.50;2380.80;;;;;;6247081;22;20090;-72
2021/08/25 19:02:57;;;;;;;10.68;6.15;;;486.50;2380.80;;;;;;6247233;22;20053;-74
2021/08/25 19:05:23;;;;;;;8.55;5.68;;;486.50;2380.80;;;;;;6246075;22;20039;-72
2021/08/25 19:07:49;;;;;;;7.15;5.50;;;486.50;2380.80;;;;;;6274458;22;20030;-73
2021/08/25 19:10:15;;;;;;;7.63;5.82;;;486.60;2380.80;;;;;;6303801;22;20019;-72
2021/08/25 19:12:41;;;;;;;8.32;6.18;;;486.50;2380.80;;;;;;6270316;22;19999;-70
2021/08/25 19:15:07;;;;;;;8.50;5.78;;;486.60;2380.80;;;;;;6305606;22;20015;-72
2021/08/25 19:17:33;;;;;;;6.20;5.00;;;486.50;2380.80;;;;;;6276184;22;20007;-74
2021/08/25 19:19:58;;;;;;;6.80;4.88;;;486.60;2380.80;;;;;;6303736;22;20329;-72
2021/08/25 19:22:24;;;;;;;7.25;4.82;;;486.60;2380.80;;;;;;6275261;22;20010;-71
2021/08/25 19:24:51;;;;;;;6.30;4.80;;;486.60;2380.80;;;;;;6304313;22;20454;-72
2021/08/25 19:27:16;;;;;;;6.20;4.97;;;486.60;2380.80;;;;;;6302154;22;20090;-73
2021/08/25 19:29:42;;;;;;;7.63;4.97;;;486.60;2380.80;;;;;;6304484;22;20007;-74
2021/08/25 19:32:09;;;;;;;5.63;4.25;;;486.60;2380.80;;;;;;6304436;22;20468;-73
2021/08/25 19:34:35;;;;;;;7.15;4.40;;;486.50;2380.80;;;;;;6304664;22;20021;-76
2021/08/25 19:37:01;;;;;;;5.93;4.20;;;486.50;2380.80;;;;;;6304941;22;20082;-72
2021/08/25 19:39:27;;;;;;;9.55;4.28;;;486.50;2380.80;;;;;;6276629;22;20003;-73
2021/08/25 19:41:54;;;;;;;6.18;4.35;;;486.50;2380.80;;;;;;6304882;22;20321;-74
2021/08/25 19:44:21;;;;;;;5.80;4.30;;;486.40;2380.80;;;;;;6304475;22;20060;-73
2021/08/25 19:46:50;;;;;;;8.15;4.57;;;486.50;2380.80;;;;;;6304717;22;19999;-72
2021/08/25 19:49:16;;;;;;;5.07;4.32;;;486.40;2380.80;;;;;;6277473;22;20106;-74
2021/08/25 19:51:42;;;;;;;6.28;4.38;;;486.40;2380.80;;;;;;6305395;22;20417;-74
2021/08/25 19:54:08;;;;;;;10.05;4.53;;;486.40;2380.80;;;;;;6304420;22;20013;-74
2021/08/25 19:56:35;;;;;;;5.32;4.20;;;486.50;2380.80;;;;;;6301383;22;20003;-73
2021/08/25 19:59:01;;;;;;;8.10;4.30;;;461.40;2380.80;;;;;;6276149;22;20420;-73
2021/08/25 20:01:27;;;;;;;6.78;4.05;;;486.40;2380.80;;;;;;6304102;22;19999;-76
2021/08/25 20:03:53;;;;;;;7.15;4.30;;;486.40;2380.80;;;;;;6304125;22;20436;-73
2021/08/25 20:06:19;;;;;;;5.55;4.00;;;486.40;2380.80;;;;;;6303545;22;19999;-73
2021/08/25 20:08:44;;;;;;;9.43;4.20;;;461.70;2380.80;;;;;;6303655;22;20015;-70
2021/08/25 20:11:11;;;;;;;7.95;4.43;;;486.40;2380.80;;;;;;6303558;22;20006;-74
2021/08/25 20:13:41;;;;;;;6.50;4.50;;;486.40;2380.80;;;;;;6299677;22;20003;-73
2021/08/25 20:16:10;;;;;;;5.78;4.32;;;486.40;2380.80;;;;;;6281125;22;20066;-73
2021/08/25 20:18:39;;;;;;;8.82;4.63;;;486.40;2380.80;;;;;;6307504;22;20368;-73
2021/08/25 20:21:05;;;;;;;8.63;4.38;;;486.40;2380.80;;;;;;6306990;22;20003;-74
2021/08/25 20:23:31;;;;;;;7.07;4.53;;;486.40;2380.80;;;;;;6306139;22;20007;-73
2021/08/25 20:25:57;;;;;;;6.28;4.70;;;461.70;2380.80;;;;;;6306588;22;20007;-71
2021/08/25 20:28:26;;;;;;;5.13;4.10;;;486.40;2380.80;;;;;;6305980;22;20008;-70
2021/08/25 20:30:52;;;;;;;7.00;4.78;;;461.60;2380.80;;;;;;6280460;22;20095;-73
2021/08/25 20:33:18;;;;;;;6.75;4.40;;;461.60;2380.80;;;;;;6307211;22;20004;-76
2021/08/25 20:35:44;;;;;;;7.30;5.10;;;461.60;2380.80;;;;;;6308769;22;20015;-74
2021/08/25 20:38:14;;;;;;;7.82;5.43;;;461.50;2380.80;;;;;;6277917;22;20674;-75
2021/08/25 20:40:40;;;;;;;7.60;5.50;;;461.50;2380.80;;;;;;6310710;22;20015;-75
2021/08/25 20:43:07;;;;;;;7.82;5.78;;;461.40;2380.80;;;;;;6306034;22;20029;-75
2021/08/25 20:45:33;;;;;;;9.52;5.05;;;461.20;2380.80;;;;;;6280400;22;20003;-75
2021/08/25 20:47:59;;;;;;;7.53;5.20;;;461.30;2380.80;;;;;;6306062;22;20056;-72
2021/08/25 20:50:24;;;;;;;7.15;4.72;;;461.30;2380.80;;;;;;6304992;22;20008;-73
2021/08/25 20:52:51;;;;;;;6.55;4.90;;;461.40;2380.80;;;;;;6306143;22;20007;-72
2021/08/25 20:55:20;;;;;;;6.07;4.60;;;461.40;2380.80;;;;;;6304894;22;20007;-75
2021/08/25 20:57:46;;;;;;;6.70;4.72;;;461.40;2380.80;;;;;;6306789;22;20007;-76
2021/08/25 21:00:12;;;;;;;9.10;4.90;;;461.40;2380.80;;;;;;6306708;22;20014;-77
2021/08/25 21:02:38;;;;;;;8.80;4.78;;;461.40;2380.80;;;;;;6307065;22;19999;-72
2021/08/25 21:05:05;;;;;;;7.50;4.93;;;461.30;2380.80;;;;;;6306040;22;20060;-72
2021/08/25 21:07:31;;;;;;;8.57;4.82;;;461.20;2380.80;;;;;;6277664;22;20045;-73
2021/08/25 21:09:57;;;;;;;7.10;5.10;;;461.10;2380.80;;;;;;6272861;22;20074;-75
2021/08/25 21:12:23;;;;;;;7.32;5.13;;;461.10;2380.80;;;;;;6266429;22;20098;-72
2021/08/25 21:14:49;;;;;;;6.30;4.80;;;461.30;2380.80;;;;;;6273582;22;20046;-73
2021/08/25 21:17:16;;;;;;;8.20;5.43;;;460.90;2380.80;;;;;;6273149;22;20026;-73
2021/08/25 21:19:42;;;;;;;7.57;5.05;;;460.90;2380.80;;;;;;6275261;22;20057;-74
2021/08/25 21:22:09;;;;;;;9.05;5.50;;;460.90;2380.80;;;;;;6278127;22;20071;-74
2021/08/25 21:24:37;;;;;;;9.63;5.30;;;460.90;2380.80;;;;;;6276678;22;20027;-75
2021/08/25 21:27:05;;;;;;;8.45;5.80;;;460.90;2380.80;;;;;;6277624;22;20038;-72
2021/08/25 21:29:32;;;;;;;9.68;5.90;;;460.80;2380.80;;;;;;6274815;22;19999;-72
2021/08/25 21:31:57;;;;;;;8.68;6.18;;;460.80;2380.80;;;;;;6275933;22;20088;-73
2021/08/25 21:34:23;;;;;;;8.10;6.07;;;436.10;2355.20;;;;;;6275051;22;20035;-73
2021/08/25 21:36:52;;;;;;;8.43;6.00;;;436.10;2355.20;;;;;;6275656;22;20008;-74
2021/08/25 21:39:18;;;;;;;7.53;6.28;;;436.10;2355.20;;;;;;6275446;22;20026;-73
2021/08/25 21:41:44;;;;;;;8.73;5.85;;;436.00;2355.20;;;;;;6276284;22;19995;-74
2021/08/25 21:44:09;;;;;;;9.07;6.05;;;435.90;2355.20;;;;;;6276260;22;20034;-76
2021/08/25 21:46:35;;;;;;;8.57;5.72;;;436.00;2355.20;;;;;;6277629;22;19999;-75
2021/08/25 21:49:01;;;;;;;9.27;6.80;;;435.90;2355.20;;;;;;6276764;22;20011;-74
2021/08/25 21:51:27;;;;;;;8.85;5.90;;;435.90;2355.20;;;;;;6273577;22;20004;-73
2021/08/25 21:53:53;;;;;;;7.78;5.53;;;435.90;2355.20;;;;;;6273782;22;20007;-74
2021/08/25 21:56:20;;;;;;;9.20;6.03;;;435.80;2355.20;;;;;;6276284;22;20003;-76
2021/08/25 21:58:47;;;;;;;11.13;6.22;;;435.80;2355.20;;;;;;6276132;22;20010;-72
2021/08/25 22:31:55;;;;;;;12.85;6.38;;;435.80;2355.20;;;;;;6348167;22;20015;-76
2021/08/25 22:34:20;;;;;;;9.13;6.65;;;435.70;2355.20;;;;;;6339597;22;20019;-75
2021/08/25 22:36:46;;;;;;;9.43;6.47;;;435.60;2355.20;;;;;;6311612;22;20034;-74
2021/08/25 22:39:12;;;;;;;9.07;6.75;;;435.60;2355.20;;;;;;6340155;22;20002;-74
2021/08/25 22:41:37;;;;;;;9.38;6.95;;;435.60;2355.20;;;;;;6339961;22;20010;-74
2021/08/25 22:44:03;;;;;;;10.85;6.95;;;435.50;2355.20;;;;;;6338949;22;20049;-74
2021/08/25 22:46:29;;;;;;;11.45;6.65;;;435.40;2355.20;;;;;;6340392;22;20315;-75
2021/08/25 22:48:55;;;;;;;9.15;6.97;;;435.40;2355.20;;;;;;6339520;22;19999;-75
2021/08/25 22:51:20;;;;;;;11.23;6.82;;;435.30;2355.20;;;;;;6339949;22;20041;-74
2021/08/25 22:53:46;;;;;;;11.20;6.68;;;435.20;2355.20;;;;;;6340247;22;19995;-75
2021/08/25 22:56:12;;;;;;;10.77;7.13;;;435.20;2355.20;;;;;;6339949;22;20002;-74
2021/08/25 22:58:38;;;;;;;9.10;6.72;;;410.50;2355.20;;;;;;6339179;22;20033;-75
2021/08/25 23:01:05;;;;;;;8.35;6.65;;;435.20;2355.20;;;;;;6339455;22;20424;-75
2021/08/25 23:03:31;;;;;;;10.30;6.65;;;435.30;2355.20;;;;;;6311767;22;20014;-74
2021/08/25 23:05:57;;;;;;;9.63;6.78;;;435.40;2355.20;;;;;;6339345;22;20356;-75
2021/08/25 23:08:23;;;;;;;10.10;7.35;;;435.40;2355.20;;;;;;6340019;22;20054;-74
2021/08/25 23:10:48;;;;;;;8.27;6.55;;;435.40;2355.20;;;;;;6338095;22;20037;-74
2021/08/25 23:13:14;;;;;;;9.85;6.95;;;435.20;2355.20;;;;;;6338605;22;20077;-74
2021/08/25 23:15:40;;;;;;;8.75;6.72;;;435.30;2355.20;;;;;;6337884;22;20042;-75
2021/08/25 23:18:06;;;;;;;8.73;6.53;;;435.30;2355.20;;;;;;6338506;22;20010;-75
2021/08/25 23:20:31;;;;;;;9.80;6.70;;;435.30;2355.20;;;;;;6310219;22;20003;-74
2021/08/25 23:22:57;;;;;;;11.57;7.25;;;435.30;2355.20;;;;;;6339631;22;19999;-75
2021/08/25 23:25:23;;;;;;;9.25;6.80;;;435.30;2355.20;;;;;;6340504;22;20007;-74
2021/08/25 23:27:48;;;;;;;9.38;6.95;;;435.30;2355.20;;;;;;6340117;22;19999;-74
2021/08/25 23:30:14;;;;;;;9.77;6.88;;;435.40;2355.20;;;;;;6338936;22;20320;-75
2021/08/25 23:32:40;;;;;;;9.93;7.05;;;435.20;2355.20;;;;;;6339989;22;20065;-74
2021/08/25 23:35:06;;;;;;;9.98;7.00;;;410.50;2355.20;;;;;;6339872;22;20436;-75
2021/08/25 23:37:32;;;;;;;12.25;7.00;;;410.50;2355.20;;;;;;6340606;22;20085;-75
2021/08/25 23:39:57;;;;;;;10.70;7.10;;;410.40;2355.20;;;;;;6340405;22;20338;-75
2021/08/25 23:42:24;;;;;;;10.75;7.63;;;410.40;2355.20;;;;;;6339308;22;19999;-75
2021/08/25 23:44:50;;;;;;;11.20;7.53;;;410.30;2355.20;;;;;;6342439;22;19998;-76
2021/08/25 23:47:18;;;;;;;10.40;7.22;;;410.50;2355.20;;;;;;6343846;22;20064;-75
2021/08/25 23:49:44;;;;;;;9.77;7.30;;;410.30;2355.20;;;;;;6345133;22;20074;-76
2021/08/25 23:52:10;;;;;;;12.38;7.80;;;410.40;2355.20;;;;;;6345128;22;20017;-76
2021/08/25 23:54:35;;;;;;;11.00;8.05;;;410.30;2355.20;;;;;;6316770;22;20098;-76
2021/08/25 23:57:01;;;;;;;11.70;7.43;;;410.20;2355.20;;;;;;6342912;22;20006;-75
2021/08/25 23:59:27;;;;;;;11.30;8.23;;;410.30;2355.20;;;;;;6343190;22;19998;-75
